Agcasar, Turkey

8:08 PM +03 on June 25, 2017 (GMT +0300)
Erkilet Air Base | | Change Station

Elev 3458 ft 38.82 °N, 35.43 °E | Updated 18 minutes ago

Clear
Clear
77 °F
Feels Like 77 °F
N
10
Wind Variable Wind from North

Today
High -- | Low -- °F
--% Chance of Precip.
Yesterday
High -- | Low -- °F
Precip. -- in
Pressure 30.01 in
Visibility -9999.0 miles
Clouds
Dew Point 46 °F
Humidity 34%
Rainfall 0.00 in
Snow Depth Not available.
5:16 AM 8:05 PM
Waxing Crescent, 4% visible
METAR LTAU 251650Z 35009KT 320V020 CAVOK 25/08 Q1016 NOSIG RMK RWY07 32009KT
Pressure 30.01 in
Visibility -9999.0 miles
Clouds
Dew Point 46 °F
Humidity 34%
Rainfall 0.00 in
Snow Depth Not available.
5:16 AM 8:05 PM
Waxing Crescent, 4% visible
METAR LTAU 251650Z 35009KT 320V020 CAVOK 25/08 Q1016 NOSIG RMK RWY07 32009KT

Get Severe Weather Alerts

Thanks for signing up!

Be on the lookout for a verification email in your inbox.

You'll start receiving the daily forecast at 6 AM.

×

10-Day Weather Forecast

×

Almanac

Astronomy

Jun. 25, 2017 Rise Set
Actual Time
Civil Twilight
Nautical Twilight
Astronomical Twilight
Moon
Length of Visible Light
Length of Day
Tomorrow will be .
, % of the Moon is Illuminated

Today's Extremes

Country Highs Country Lows

Community

WunderPhotos

Category 6

Welcome to Category 6. This is the collective home for Weather Underground's featured writeups by Dr. Jeff Masters (right), Bob Henson (left), Chris Burt, and other regular contributors.

Nearby

Air Quality

  Air Quality AQ Index Pollutant
Not available.

Snow Depth

Station Depth Elevation

Earthquake Activity

City Distance Mag. Time & Date
Minimum magnitude displayed is 2.5.

Coastal Water Temperatures

Place Temperature

Stations

Nearby Weather Stations

Station Location Temp. Windchill Dew Point Humidity Wind Precip. Elev Updated Type